Orleans, IN (47452)

11:37 AM EST on February 06, 2016 (GMT -0500)
B&K Mundy Farms | | Change Station
CLOSE
Current Station
Personal Weather Station
Location: Mitchell, IN
Elevation: 656 ft
Nearby Weather Stations

Elev 656 ft 38.71 °N, 86.49 °W | Updated 4 minutes ago

Partly Cloudy
Partly Cloudy
37.0 °F
Feels Like 37 °F
N
2.0
Wind Variable Wind from SSE
Gusts 3.0 mph

Today
High -- | Low -- °F
--% Chance of Precip.
Yesterday
High -- | Low -- °F
Precip. -- in
Pressure 30.36 in
Visibility 7.0 miles
Clouds Overcast 6500 ft
Windchill 37 °F
Dew Point 30 °F
Humidity 76%
Rainfall 0.00 in
Snow Depth Not available.
7:47 AM 6:12 PM
Waning Crescent, 5% visible
METAR KBMG 061453Z 14004KT 7SM OVC065 M01/M03 A3033 RMK AO2 SLP281 I3000 T10111033 50004
Pressure 30.36 in
Visibility 7.0 miles
Clouds Overcast 6500 ft
Windchill 37 °F
Dew Point 30 °F
Humidity 76%
Rainfall 0.00 in
Snow Depth Not available.
7:47 AM 6:12 PM
Waning Crescent, 5% visible
METAR KBMG 061453Z 14004KT 7SM OVC065 M01/M03 A3033 RMK AO2 SLP281 I3000 T10111033 50004

10-Day Weather Forecast

Almanac

Astronomy

Feb. 06, 2016 Rise Set
Actual Time
Civil Twilight
Nautical Twilight
Astronomical Twilight
Moon
Length of Visible Light
Length of Day
Tomorrow will be .
, % of the Moon is Illuminated

Today's Extremes

State Highs State Lows

Community

WunderPhotos

Upload Photos

1,891,015 photos uploaded!

WunderBlog® & News

Nearby

Air Quality

  Air Quality AQ Index Pollutant
Not available.

Snow Depth

Station Depth Elevation

Earthquake Activity

City Distance Mag. Time & Date
Minimum magnitude displayed is 2.5.

Coastal Water Temperatures

Place Temperature

Stations

Nearby Weather Stations

Station Location Temp. Windchill Dew Point Humidity Wind Precip. Elev Updated Type
                   

Watches & Warnings

There are currently no watches in effect.